Time;durP1;ratioP1;P1;durP2;ratioP2;P2;SDS_P1;SDS_P2;PMS_P1;PMS_P2;Temp;Humidity;BMP_temperature;BMP_pressure;BME280_temperature;BME280_humidity;BME280_pressure;Samples;Min_cycle;Max_cycle;Signal;HPM_P1;HPM_P2
2023/10/22 00:02:10;;;;;;;0.93;0.30;;;12.70;99.90;;;;;;5099389;28;20107;-73
2023/10/22 00:04:36;;;;;;;1.23;0.30;;;12.70;99.90;;;;;;5117633;28;20030;-73
2023/10/22 00:07:03;;;;;;;0.43;0.30;;;12.70;99.90;;;;;;5117554;28;20019;-74
2023/10/22 00:09:29;;;;;;;1.00;0.40;;;12.70;99.90;;;;;;5117560;28;20476;-75
2023/10/22 00:11:54;;;;;;;1.42;0.30;;;12.70;99.90;;;;;;5117405;28;20065;-75
2023/10/22 00:14:20;;;;;;;1.35;0.30;;;12.70;99.90;;;;;;5117452;28;20500;-75
2023/10/22 00:16:46;;;;;;;0.60;0.25;;;12.70;99.90;;;;;;5117554;28;20054;-75
2023/10/22 00:19:11;;;;;;;1.88;0.40;;;12.60;99.90;;;;;;5117417;28;20031;-75
2023/10/22 00:21:37;;;;;;;2.25;0.40;;;12.60;99.90;;;;;;5117365;28;20023;-75
2023/10/22 00:24:02;;;;;;;1.02;0.30;;;12.60;99.90;;;;;;5117254;28;20023;-75
2023/10/22 00:26:28;;;;;;;1.25;0.40;;;12.70;99.90;;;;;;5121186;28;20028;-75
2023/10/22 00:28:54;;;;;;;0.50;0.30;;;12.70;99.90;;;;;;5103191;28;20082;-75
2023/10/22 00:31:20;;;;;;;1.55;0.30;;;12.70;99.90;;;;;;5121487;28;20019;-75
2023/10/22 00:33:45;;;;;;;1.25;0.30;;;12.70;99.90;;;;;;5103072;28;20503;-75
2023/10/22 00:36:11;;;;;;;0.50;0.20;;;12.70;99.90;;;;;;5121399;28;20023;-73
2023/10/22 00:38:37;;;;;;;1.17;0.30;;;12.70;99.90;;;;;;5103287;28;20027;-74
2023/10/22 00:41:02;;;;;;;1.63;0.40;;;12.60;99.90;;;;;;5121277;28;20019;-74
2023/10/22 00:43:28;;;;;;;1.33;0.40;;;12.70;99.90;;;;;;5121085;28;20028;-74
2023/10/22 00:45:54;;;;;;;0.68;0.30;;;12.60;99.90;;;;;;5121459;28;20027;-73
2023/10/22 00:48:21;;;;;;;0.88;0.30;;;12.60;99.90;;;;;;5121017;28;20019;-73
2023/10/22 00:50:47;;;;;;;1.70;0.40;;;12.60;99.90;;;;;;5128424;27;20106;-74
2023/10/22 00:53:16;;;;;;;0.95;0.30;;;12.50;99.90;;;;;;5123307;27;20030;-74
2023/10/22 00:55:47;;;;;;;1.85;0.38;;;12.60;99.90;;;;;;5102794;28;20016;-73
2023/10/22 00:58:14;;;;;;;1.02;0.40;;;12.50;99.90;;;;;;5121000;28;20012;-74
2023/10/22 01:00:41;;;;;;;1.83;0.35;;;12.50;99.90;;;;;;5120900;28;20112;-74
2023/10/22 01:03:06;;;;;;;1.02;0.40;;;12.60;99.90;;;;;;5102520;28;20027;-74
2023/10/22 01:05:37;;;;;;;1.48;0.40;;;12.60;99.90;;;;;;5102380;28;20026;-74
2023/10/22 01:08:04;;;;;;;1.23;0.40;;;12.60;99.90;;;;;;5102305;28;20491;-74
2023/10/22 01:10:29;;;;;;;1.75;0.30;;;12.60;99.90;;;;;;5120795;28;20023;-74
2023/10/22 01:12:55;;;;;;;1.73;0.40;;;12.50;99.90;;;;;;5120744;28;20081;-74
2023/10/22 01:15:20;;;;;;;1.10;0.30;;;12.50;99.90;;;;;;5120794;28;20016;-75
2023/10/22 01:17:46;;;;;;;1.58;0.40;;;12.50;99.90;;;;;;5120695;28;20051;-74
2023/10/22 01:20:13;;;;;;;1.15;0.28;;;12.50;99.90;;;;;;5102383;28;20031;-74
2023/10/22 01:22:39;;;;;;;0.40;0.30;;;12.50;99.90;;;;;;5102095;28;20384;-74
2023/10/22 01:25:05;;;;;;;1.10;0.30;;;12.40;99.90;;;;;;5102041;28;20027;-74
2023/10/22 01:27:34;;;;;;;2.35;0.50;;;12.40;99.90;;;;;;5120501;28;20057;-74
2023/10/22 01:30:00;;;;;;;1.20;0.40;;;12.40;99.90;;;;;;5120302;28;20030;-74
2023/10/22 01:32:30;;;;;;;2.28;0.45;;;12.40;99.90;;;;;;5102226;28;20111;-74
2023/10/22 01:34:57;;;;;;;2.03;0.40;;;12.40;99.90;;;;;;5120147;28;20058;-74
2023/10/22 01:37:23;;;;;;;1.83;0.40;;;12.40;99.90;;;;;;5119650;28;20031;-73
2023/10/22 01:39:49;;;;;;;0.43;0.25;;;12.30;99.90;;;;;;5101657;28;20037;-73
2023/10/22 01:42:15;;;;;;;1.20;0.30;;;12.30;99.90;;;;;;5120191;28;20045;-73
2023/10/22 01:44:40;;;;;;;0.98;0.40;;;12.30;99.90;;;;;;5101984;28;20479;-73
2023/10/22 01:47:06;;;;;;;1.52;0.35;;;12.30;99.90;;;;;;5120228;28;20027;-73
2023/10/22 01:49:32;;;;;;;0.63;0.20;;;12.30;99.90;;;;;;5119854;28;20019;-73
2023/10/22 01:51:57;;;;;;;1.83;0.40;;;12.40;99.90;;;;;;5129275;27;20024;-73
2023/10/22 01:54:23;;;;;;;1.83;0.40;;;12.40;99.90;;;;;;5119686;28;20094;-75
2023/10/22 01:56:49;;;;;;;2.05;0.47;;;12.30;99.90;;;;;;5120028;28;20015;-75
2023/10/22 01:59:15;;;;;;;0.63;0.32;;;12.30;99.90;;;;;;5119966;28;20016;-75
2023/10/22 02:01:42;;;;;;;2.40;0.40;;;12.30;99.90;;;;;;5101335;28;20055;-75
2023/10/22 02:04:08;;;;;;;2.33;0.30;;;12.20;99.90;;;;;;5119782;28;20067;-76
2023/10/22 02:06:34;;;;;;;1.27;0.40;;;12.20;99.90;;;;;;5119809;28;20050;-76
2023/10/22 02:09:00;;;;;;;2.17;0.35;;;12.30;99.90;;;;;;5119493;28;20027;-76
2023/10/22 02:11:26;;;;;;;1.75;0.30;;;12.20;99.90;;;;;;5101447;28;20023;-76
2023/10/22 02:13:52;;;;;;;1.77;0.63;;;12.20;99.90;;;;;;5119596;28;20095;-75
2023/10/22 02:16:19;;;;;;;1.73;0.38;;;12.20;99.90;;;;;;5101651;28;20108;-76
2023/10/22 02:18:44;;;;;;;1.23;0.38;;;12.20;99.90;;;;;;5101091;28;20492;-75
2023/10/22 02:21:10;;;;;;;1.80;0.40;;;12.20;99.90;;;;;;5119290;28;20031;-75
2023/10/22 02:23:36;;;;;;;1.73;0.30;;;12.20;99.90;;;;;;5119633;28;20079;-75
2023/10/22 02:26:04;;;;;;;3.00;0.45;;;12.20;99.90;;;;;;5119339;28;20023;-74
2023/10/22 02:28:29;;;;;;;1.25;0.30;;;12.20;99.90;;;;;;5119210;28;20068;-73
2023/10/22 02:30:55;;;;;;;2.00;0.50;;;12.20;99.90;;;;;;5119153;28;20027;-74
2023/10/22 02:33:20;;;;;;;1.80;0.45;;;12.20;99.90;;;;;;5118891;28;20023;-73
2023/10/22 02:35:46;;;;;;;1.00;0.25;;;12.20;99.90;;;;;;5119357;28;20371;-73
2023/10/22 02:38:14;;;;;;;1.00;0.40;;;12.20;99.90;;;;;;5100939;28;20043;-73
2023/10/22 02:40:40;;;;;;;1.95;0.45;;;12.10;99.90;;;;;;5100569;28;20484;-73
2023/10/22 02:43:06;;;;;;;3.00;0.50;;;12.10;99.90;;;;;;5100434;28;20049;-73
2023/10/22 02:45:32;;;;;;;2.55;0.30;;;12.10;99.90;;;;;;5100716;28;20032;-73
2023/10/22 02:47:59;;;;;;;2.63;0.40;;;12.00;99.90;;;;;;5117874;28;20029;-73
2023/10/22 02:50:26;;;;;;;1.05;0.35;;;11.90;99.90;;;;;;5123106;27;20045;-73
2023/10/22 02:52:52;;;;;;;3.17;0.60;;;11.90;99.90;;;;;;5123578;27;20023;-73
2023/10/22 02:55:18;;;;;;;1.75;0.40;;;11.80;99.90;;;;;;5100375;28;20076;-73
2023/10/22 02:57:44;;;;;;;0.82;0.30;;;11.70;99.90;;;;;;5100304;28;20110;-73
2023/10/22 03:00:10;;;;;;;0.65;0.32;;;11.70;99.90;;;;;;5118644;28;20118;-73
2023/10/22 03:02:40;;;;;;;1.98;0.43;;;;;;;;;;5118502;28;20028;-73
2023/10/22 03:05:06;;;;;;;3.47;0.60;;;;;;;;;;5118700;28;20023;-73
2023/10/22 03:07:32;;;;;;;1.42;0.35;;;;;;;;;;5118207;28;20034;-73
2023/10/22 03:09:58;;;;;;;1.23;0.40;;;;;;;;;;5118458;28;20038;-74
2023/10/22 03:12:24;;;;;;;2.20;0.68;;;;;;;;;;5118287;28;20096;-73
2023/10/22 03:14:53;;;;;;;1.83;0.60;;;;;;;;;;5100300;28;20040;-73
2023/10/22 03:17:20;;;;;;;1.67;0.40;;;;;;;;;;5118296;28;20024;-73
2023/10/22 03:19:46;;;;;;;1.92;0.50;;;;;;;;;;5118478;28;20020;-73
2023/10/22 03:22:14;;;;;;;1.15;0.40;;;;;;;;;;5118009;28;20020;-73
2023/10/22 03:24:40;;;;;;;1.10;0.40;;;;;;;;;;5118384;28;20375;-73
2023/10/22 03:27:06;;;;;;;2.67;0.60;;;;;;;;;;5118102;28;20020;-73
2023/10/22 03:29:32;;;;;;;3.40;0.50;;;;;;;;;;5118106;28;20453;-73
2023/10/22 03:31:59;;;;;;;1.80;0.52;;;;;;;;;;5118038;28;20027;-73
2023/10/22 03:34:25;;;;;;;2.78;0.70;;;;;;;;;;5118114;28;20020;-73
2023/10/22 03:36:51;;;;;;;1.58;0.47;;;;;;;;;;5117729;28;20380;-73
2023/10/22 03:39:17;;;;;;;4.03;0.60;;;;;;;;;;5118135;28;20054;-74
2023/10/22 03:41:44;;;;;;;2.63;0.60;;;;;;;;;;5099282;28;20020;-73
2023/10/22 03:44:10;;;;;;;2.67;0.55;;;;;;;;;;5099780;28;20024;-73
2023/10/22 03:46:36;;;;;;;2.63;0.65;;;;;;;;;;5117901;28;20031;-74
2023/10/22 03:49:02;;;;;;;3.47;0.40;;;;;;;;;;5117938;28;20020;-74
2023/10/22 03:51:28;;;;;;;1.80;0.47;;;;;;;;;;5127033;27;20087;-74
2023/10/22 03:53:56;;;;;;;3.53;0.50;;;;;;;;;;5117940;28;20551;-74
2023/10/22 03:56:22;;;;;;;2.30;0.50;;;;;;;;;;5117723;28;20024;-74
2023/10/22 03:58:48;;;;;;;3.63;0.60;;;;;;;;;;5117849;28;20023;-74
2023/10/22 04:01:14;;;;;;;2.45;0.75;;;;;;;;;;5117596;28;20078;-74
2023/10/22 04:03:40;;;;;;;1.77;0.50;;;;;;;;;;5099551;28;20024;-74
2023/10/22 04:06:06;;;;;;;3.08;0.50;;;;;;;;;;5117069;28;20403;-74
2023/10/22 04:08:32;;;;;;;3.20;0.60;;;;;;;;;;5117665;28;20024;-74
2023/10/22 04:10:58;;;;;;;4.05;0.90;;;;;;;;;;5117426;28;20028;-73
2023/10/22 04:13:24;;;;;;;4.65;0.60;;;;;;;;;;5117626;28;20016;-72
2023/10/22 04:15:51;;;;;;;2.72;0.68;;;;;;;;;;5117642;28;20031;-73
2023/10/22 04:18:19;;;;;;;8.00;0.57;;;;;;;;;;5117595;28;20020;-74
2023/10/22 04:20:45;;;;;;;2.92;0.88;;;;;;;;;;5117214;28;20019;-74
2023/10/22 04:23:11;;;;;;;4.30;0.52;;;;;;;;;;5117574;28;20055;-74
2023/10/22 04:25:40;;;;;;;5.10;0.60;;;;;;;;;;5117574;28;20027;-74
2023/10/22 04:28:06;;;;;;;4.90;0.80;;;;;;;;;;5099309;28;20019;-73
2023/10/22 04:30:33;;;;;;;3.17;0.60;;;;;;;;;;5117060;28;20031;-73
2023/10/22 04:32:59;;;;;;;3.40;0.60;;;;;;;;;;5099195;28;20091;-73
2023/10/22 04:35:25;;;;;;;3.92;0.47;;;;;;;;;;5098948;28;20069;-74
2023/10/22 04:37:54;;;;;;;6.10;0.80;;;;;;;;;;5117398;28;20023;-74
2023/10/22 04:40:20;;;;;;;2.72;0.40;;;;;;;;;;5098923;28;20032;-74
2023/10/22 04:42:46;;;;;;;3.15;0.70;;;;;;;;;;5117290;28;20027;-74
2023/10/22 04:45:12;;;;;;;2.10;0.60;;;;;;;;;;5117092;28;20112;-74
2023/10/22 04:47:38;;;;;;;2.53;0.70;;;;;;;;;;5098830;28;20031;-74
2023/10/22 04:50:05;;;;;;;1.38;0.50;;;;;;;;;;5118503;28;20030;-74
2023/10/22 04:52:31;;;;;;;4.07;0.65;;;;;;;;;;5106941;28;20072;-74
2023/10/22 04:55:01;;;;;;;3.58;0.63;;;;;;;;;;5117070;28;20069;-73
2023/10/22 04:57:30;;;;;;;2.63;0.60;;;;;;;;;;5117356;28;20020;-74
2023/10/22 04:59:56;;;;;;;4.13;0.70;;;;;;;;;;5116988;28;20058;-74
2023/10/22 05:02:22;;;;;;;3.85;0.50;;;;;;;;;;5117293;28;20045;-74
2023/10/22 05:04:50;;;;;;;3.58;0.60;;;;;;;;;;5117266;28;20024;-74
2023/10/22 05:07:16;;;;;;;2.33;0.60;;;;;;;;;;5116987;28;20027;-73
2023/10/22 05:09:43;;;;;;;2.63;0.50;;;;;;;;;;5098732;28;20503;-74
2023/10/22 05:12:09;;;;;;;2.92;0.70;;;;;;;;;;5101252;28;20048;-74
2023/10/22 05:14:35;;;;;;;3.42;0.60;;;;;;;;;;5120831;28;20020;-74
2023/10/22 05:17:01;;;;;;;1.73;0.50;;;;;;;;;;5120642;28;20962;-73
2023/10/22 05:19:27;;;;;;;2.05;0.77;;;;;;;;;;5120784;28;20020;-73
2023/10/22 05:21:53;;;;;;;3.08;0.70;;;;;;;;;;5120614;28;20032;-73
2023/10/22 05:24:19;;;;;;;3.70;0.80;;;;;;;;;;5120694;28;20055;-73
2023/10/22 05:26:45;;;;;;;2.95;0.57;;;;;;;;;;5120419;28;20387;-73
2023/10/22 05:29:11;;;;;;;1.80;0.57;;;;;;;;;;5120630;28;20475;-73
2023/10/22 05:31:37;;;;;;;3.00;0.68;;;;;;;;;;5101986;28;20038;-73
2023/10/22 05:34:03;;;;;;;2.03;0.40;;;;;;;;;;5120745;28;20024;-74
2023/10/22 05:36:29;;;;;;;2.90;0.65;;;;;;;;;;5120276;28;20027;-74
2023/10/22 05:38:55;;;;;;;2.97;0.45;;;;;;;;;;5120343;28;20016;-73
2023/10/22 05:41:22;;;;;;;3.08;0.60;;;;;;;;;;5101576;28;20119;-74
2023/10/22 05:43:52;;;;;;;1.45;0.40;;;;;;;;;;5120515;28;20049;-73
2023/10/22 05:46:17;;;;;;;2.17;0.57;;;;;;;;;;5120160;28;20038;-74
2023/10/22 05:48:44;;;;;;;1.23;0.50;;;;;;;;;;5120307;28;20047;-74
2023/10/22 05:51:10;;;;;;;2.65;0.45;;;;;;;;;;5129549;27;20027;-74
2023/10/22 05:53:36;;;;;;;2.67;0.70;;;;;;;;;;5101754;28;20107;-74
2023/10/22 05:56:02;;;;;;;2.85;0.70;;;;;;;;;;5119886;28;20032;-74
2023/10/22 05:58:28;;;;;;;3.40;0.75;;;;;;;;;;5101643;28;20106;-73
2023/10/22 06:00:54;;;;;;;2.35;0.80;;;;;;;;;;5119173;28;20051;-73
2023/10/22 06:03:21;;;;;;;3.70;0.70;;;;;;;;;;5118957;28;20047;-73
2023/10/22 06:05:48;;;;;;;2.08;0.50;;;;;;;;;;5119581;28;20092;-73
2023/10/22 06:08:14;;;;;;;2.25;0.60;;;;;;;;;;5118344;28;20028;-73
2023/10/22 06:10:43;;;;;;;1.35;0.40;;;;;;;;;;5119398;28;20035;-73
2023/10/22 06:13:10;;;;;;;2.88;0.80;;;;;;;;;;5119840;28;20024;-73
2023/10/22 06:15:36;;;;;;;3.53;0.65;;;;;;;;;;5119535;28;20016;-73
2023/10/22 06:18:03;;;;;;;2.65;0.70;;;;;;;;;;5119811;28;20020;-73
2023/10/22 06:20:32;;;;;;;1.85;0.60;;;;;;;;;;5117934;28;20077;-73
2023/10/22 06:22:59;;;;;;;2.58;0.50;;;;;;;;;;5119647;28;20028;-74
2023/10/22 06:25:25;;;;;;;3.10;0.60;;;;;;;;;;5119309;28;20020;-75
2023/10/22 06:27:51;;;;;;;2.53;0.68;;;;;;;;;;5118107;28;20055;-75
2023/10/22 06:30:22;;;;;;;1.55;0.40;;;;;;;;;;5119508;28;20030;-75
2023/10/22 06:32:51;;;;;;;2.83;0.80;;;;;;;;;;5119399;28;20045;-75
2023/10/22 06:35:17;;;;;;;3.05;1.00;;;;;;;;;;5118903;28;20023;-74
2023/10/22 06:37:43;;;;;;;2.92;0.80;;;;;;;;;;5119352;28;20023;-75
2023/10/22 06:40:09;;;;;;;2.53;0.57;;;;;;;;;;5118798;28;20391;-74
2023/10/22 06:42:35;;;;;;;2.20;0.60;;;;;;;;;;5100719;28;20028;-73
2023/10/22 06:45:03;;;;;;;1.48;0.50;;;;;;;;;;5100650;28;20060;-73
2023/10/22 06:47:29;;;;;;;2.60;0.70;;;;;;;;;;5100585;28;20055;-73
2023/10/22 06:49:56;;;;;;;2.97;0.70;;;;;;;;;;5118899;27;20020;-74
2023/10/22 06:52:21;;;;;;;2.42;0.75;;;;;;;;;;5128583;27;20024;-74
2023/10/22 06:54:47;;;;;;;2.30;0.65;;;;;;;;;;5100400;28;20019;-73
2023/10/22 06:57:13;;;;;;;3.22;0.55;;;;;;;;;;5118920;28;20035;-73
2023/10/22 06:59:39;;;;;;;2.47;0.70;;;;;;;;;;5118466;28;20024;-75
2023/10/22 07:02:05;;;;;;;3.03;0.75;;;;;;;;;;5118644;28;20055;-74
2023/10/22 07:04:31;;;;;;;3.13;0.70;;;;;;;;;;5118500;28;20030;-75
2023/10/22 07:06:57;;;;;;;2.25;0.77;;;;;;;;;;5100178;28;20027;-74
2023/10/22 07:09:23;;;;;;;2.25;0.63;;;;;;;;;;5118371;28;20027;-73
2023/10/22 07:11:49;;;;;;;3.00;0.70;;;;;;;;;;5118400;28;20027;-73
2023/10/22 07:14:15;;;;;;;3.53;1.17;;;;;;;;;;5100018;28;20464;-73
2023/10/22 07:16:42;;;;;;;2.65;0.70;;;;;;;;;;5118493;28;20028;-73
2023/10/22 07:19:08;;;;;;;3.28;0.60;;;;;;;;;;5118336;28;20391;-73
2023/10/22 07:21:34;;;;;;;2.70;0.77;;;;;;;;;;5099717;28;20028;-72
2023/10/22 07:24:00;;;;;;;1.65;0.57;;;;;;;;;;5118181;28;20019;-72
2023/10/22 07:26:26;;;;;;;3.88;0.70;;;;;;;;;;5118266;28;20106;-72
2023/10/22 07:28:52;;;;;;;3.20;0.88;;;;;;;;;;5118204;28;21198;-72
2023/10/22 07:31:18;;;;;;;2.15;0.80;;;;;;;;;;5118287;28;20247;-72
2023/10/22 07:33:44;;;;;;;3.58;0.90;;;;;;;;;;5117533;28;20391;-72
2023/10/22 07:36:11;;;;;;;2.53;0.80;;;;;;;;;;5117969;28;20031;-72
2023/10/22 07:38:40;;;;;;;3.70;1.08;;;;;;;;;;5099672;28;20446;-73
2023/10/22 07:41:07;;;;;;;4.32;1.05;;;;;;;;;;5099228;28;20027;-73
2023/10/22 07:43:33;;;;;;;3.30;0.80;;;;;;;;;;5099561;28;20023;-73
2023/10/22 07:46:04;;;;;;;3.28;0.95;;;10.40;99.90;;;;;;5117947;28;20388;-73
2023/10/22 07:48:30;;;;;;;2.90;1.05;;;10.40;99.90;;;;;;5117642;28;20091;-74
2023/10/22 07:51:07;;;;;;;5.97;0.93;;;10.40;99.90;;;;;;5126480;27;20102;-73
2023/10/22 07:53:33;;;;;;;4.55;0.82;;;10.50;99.90;;;;;;5105634;28;20106;-73
2023/10/22 07:55:59;;;;;;;2.45;0.63;;;10.50;99.90;;;;;;5117666;28;20067;-72
2023/10/22 07:58:24;;;;;;;3.42;1.20;;;10.60;99.90;;;;;;5099430;28;20031;-73
2023/10/22 08:00:50;;;;;;;4.55;1.08;;;10.60;99.90;;;;;;5117491;28;20043;-73
2023/10/22 08:03:15;;;;;;;4.57;0.88;;;10.70;99.90;;;;;;5117832;28;20034;-74
2023/10/22 08:05:41;;;;;;;3.78;1.17;;;10.80;99.90;;;;;;5117459;28;20054;-73
2023/10/22 08:08:06;;;;;;;4.97;1.30;;;10.80;99.90;;;;;;5117736;28;20080;-73
2023/10/22 08:10:32;;;;;;;2.95;0.75;;;10.90;99.90;;;;;;5117421;28;20023;-73
2023/10/22 08:12:58;;;;;;;3.95;1.05;;;11.00;99.90;;;;;;5117637;28;20016;-72
2023/10/22 08:15:23;;;;;;;2.13;0.82;;;11.10;99.90;;;;;;5099494;28;20019;-73
2023/10/22 08:17:49;;;;;;;4.65;0.93;;;11.20;99.90;;;;;;5117892;28;20456;-71
2023/10/22 08:20:15;;;;;;;4.95;1.10;;;11.20;99.90;;;;;;5117448;28;20046;-71
2023/10/22 08:22:40;;;;;;;4.32;1.08;;;11.30;99.90;;;;;;5099288;28;20028;-72
2023/10/22 08:25:06;;;;;;;5.60;1.65;;;11.40;99.90;;;;;;5117319;28;20047;-71
2023/10/22 08:27:33;;;;;;;3.28;1.40;;;11.40;99.90;;;;;;5117564;28;20024;-71
2023/10/22 08:29:59;;;;;;;3.38;1.02;;;11.50;99.90;;;;;;5117412;28;20341;-71
2023/10/22 08:32:24;;;;;;;4.00;1.15;;;11.50;99.90;;;;;;5100957;28;20026;-70
2023/10/22 08:34:50;;;;;;;3.60;0.98;;;11.60;99.90;;;;;;5116138;28;20080;-72
2023/10/22 08:37:16;;;;;;;4.20;1.20;;;11.60;99.90;;;;;;5099525;28;20065;-71
2023/10/22 08:39:42;;;;;;;3.67;0.93;;;11.60;99.90;;;;;;5116635;28;20052;-70
2023/10/22 08:42:11;;;;;;;3.40;0.90;;;11.70;99.90;;;;;;5116836;28;20028;-70
2023/10/22 08:44:48;;;;;;;3.53;0.88;;;11.70;99.90;;;;;;5117385;28;20038;-71
2023/10/22 08:47:14;;;;;;;2.95;0.80;;;11.80;99.90;;;;;;5101876;28;20027;-70
2023/10/22 08:49:40;;;;;;;4.38;1.00;;;11.90;99.90;;;;;;5120421;28;20396;-70
2023/10/22 08:52:10;;;;;;;2.28;0.80;;;11.90;99.90;;;;;;5111910;28;20023;-70
2023/10/22 08:54:39;;;;;;;4.30;0.88;;;12.00;99.90;;;;;;5121035;28;20019;-69
2023/10/22 08:57:05;;;;;;;3.42;0.65;;;12.00;99.90;;;;;;5101717;28;20028;-70
2023/10/22 08:59:34;;;;;;;4.65;0.90;;;12.10;99.90;;;;;;5101559;28;20024;-70
2023/10/22 09:02:03;;;;;;;3.17;1.08;;;12.10;99.90;;;;;;5120781;28;20050;-71
2023/10/22 09:04:32;;;;;;;3.30;0.85;;;12.20;99.90;;;;;;5120781;28;20027;-70
2023/10/22 09:06:58;;;;;;;3.20;0.88;;;12.30;99.90;;;;;;5102497;28;20023;-71
2023/10/22 09:09:33;;;;;;;2.80;0.65;;;12.30;99.90;;;;;;5102372;28;20030;-72
2023/10/22 09:11:59;;;;;;;3.03;0.85;;;12.40;99.90;;;;;;5120721;28;20077;-77
2023/10/22 09:14:26;;;;;;;3.50;0.98;;;12.50;99.90;;;;;;5102441;28;20491;-76
2023/10/22 09:16:51;;;;;;;2.63;0.80;;;12.60;99.90;;;;;;5120820;28;20168;-78
2023/10/22 09:19:37;;;;;;;6.45;1.23;;;12.60;99.90;;;;;;5120590;28;20124;-75
2023/10/22 09:22:07;;;;;;;3.05;0.73;;;12.70;99.90;;;;;;5120402;28;20056;-71
2023/10/22 09:24:34;;;;;;;5.30;1.08;;;12.70;99.90;;;;;;5102276;28;20028;-75
2023/10/22 09:27:00;;;;;;;2.90;0.93;;;12.80;99.90;;;;;;5120412;28;20437;-78
2023/10/22 09:29:26;;;;;;;3.55;0.77;;;12.90;99.90;;;;;;5120470;28;20055;-74
2023/10/22 09:31:55;;;;;;;4.35;0.93;;;12.90;99.90;;;;;;5120396;28;20026;-73
2023/10/22 09:34:25;;;;;;;4.35;0.90;;;13.00;99.90;;;;;;5120202;28;20047;-82
2023/10/22 09:37:00;;;;;;;4.63;0.90;;;13.00;99.90;;;;;;5120050;28;20384;-70
2023/10/22 09:39:51;;;;;;;4.07;0.73;;;13.10;99.90;;;;;;5120346;28;20144;-69
2023/10/22 09:42:17;;;;;;;1.85;0.73;;;13.10;99.90;;;;;;5111642;28;20028;-69
2023/10/22 09:44:46;;;;;;;3.53;0.57;;;13.20;99.90;;;;;;5120228;28;20023;-71
2023/10/22 09:47:22;;;;;;;5.20;0.88;;;13.20;99.90;;;;;;5120252;28;20092;-72
2023/10/22 09:50:02;;;;;;;6.35;1.00;;;13.30;99.90;;;;;;5101513;28;20122;-72
2023/10/22 09:52:35;;;;;;;2.30;0.75;;;13.30;99.90;;;;;;5093350;28;20032;-72
2023/10/22 09:55:04;;;;;;;2.28;0.80;;;13.30;99.90;;;;;;5119910;28;20016;-71
2023/10/22 09:57:33;;;;;;;5.00;0.80;;;13.40;99.90;;;;;;5119548;28;20049;-69
2023/10/22 10:00:01;;;;;;;3.17;0.60;;;13.40;99.90;;;;;;5119931;28;20027;-69
2023/10/22 10:02:28;;;;;;;4.05;0.80;;;13.50;99.90;;;;;;5119843;28;20503;-69
2023/10/22 10:04:56;;;;;;;4.00;0.70;;;13.50;99.90;;;;;;5119975;28;20557;-69
2023/10/22 10:07:23;;;;;;;3.63;0.80;;;13.50;99.90;;;;;;5119555;28;20028;-71
2023/10/22 10:09:49;;;;;;;2.58;0.88;;;13.60;99.90;;;;;;5119877;28;20035;-72
2023/10/22 10:12:16;;;;;;;2.60;0.70;;;13.60;99.90;;;;;;5119576;28;20437;-71
2023/10/22 10:14:46;;;;;;;3.30;0.43;;;13.70;99.90;;;;;;5119879;28;20024;-69
2023/10/22 10:17:13;;;;;;;2.80;0.60;;;13.80;99.90;;;;;;5119809;28;20016;-73
2023/10/22 10:19:39;;;;;;;4.88;0.60;;;13.80;99.90;;;;;;5119743;28;20062;-73
2023/10/22 10:22:05;;;;;;;3.08;0.60;;;13.90;99.90;;;;;;5119073;28;20025;-72
2023/10/22 10:24:31;;;;;;;4.15;0.85;;;13.90;99.90;;;;;;5119551;28;20495;-71
2023/10/22 10:26:57;;;;;;;1.25;0.50;;;14.00;99.90;;;;;;5119096;28;20030;-71
2023/10/22 10:29:32;;;;;;;3.40;0.68;;;14.00;99.90;;;;;;5119491;28;20023;-70
2023/10/22 10:32:29;;;;;;;1.88;0.50;;;14.10;99.90;;;;;;5119294;28;20027;-71
2023/10/22 10:35:00;;;;;;;4.70;0.82;;;14.10;99.90;;;;;;5054461;28;20032;-69
2023/10/22 10:37:26;;;;;;;3.80;0.70;;;14.20;99.90;;;;;;5100897;28;20024;-70
2023/10/22 10:39:53;;;;;;;3.40;0.40;;;14.20;99.90;;;;;;5118978;28;20026;-69
2023/10/22 10:42:33;;;;;;;3.00;0.80;;;14.30;99.90;;;;;;5118943;28;20526;-70
2023/10/22 10:44:59;;;;;;;2.65;0.50;;;14.30;99.90;;;;;;5119015;28;20063;-69
2023/10/22 10:47:24;;;;;;;3.80;0.60;;;14.30;99.90;;;;;;5119145;28;20024;-71
2023/10/22 10:50:05;;;;;;;3.55;0.65;;;14.40;99.90;;;;;;5118645;28;20492;-71
2023/10/22 10:52:56;;;;;;;4.18;0.68;;;14.40;99.90;;;;;;5111032;28;20509;-70
2023/10/22 10:55:21;;;;;;;3.00;0.50;;;14.50;99.90;;;;;;5104266;28;20123;-72
2023/10/22 10:57:49;;;;;;;4.20;0.88;;;14.60;99.90;;;;;;5118719;28;20051;-67
2023/10/22 11:00:44;;;;;;;4.28;0.65;;;14.60;99.90;;;;;;5118658;28;20428;-71
2023/10/22 11:03:22;;;;;;;2.33;0.70;;;14.60;99.90;;;;;;5083161;28;20033;-68
2023/10/22 11:05:47;;;;;;;2.92;0.60;;;14.70;99.90;;;;;;5118292;28;20110;-71
2023/10/22 11:08:22;;;;;;;3.38;0.60;;;14.70;99.90;;;;;;5117882;28;20515;-71
2023/10/22 11:10:48;;;;;;;4.65;0.60;;;14.80;99.90;;;;;;5118341;28;20045;-71
2023/10/22 11:13:14;;;;;;;3.40;0.90;;;14.90;99.90;;;;;;5118431;28;20103;-71
2023/10/22 11:15:40;;;;;;;2.85;0.80;;;14.90;99.90;;;;;;5118377;28;20047;-71
2023/10/22 11:18:11;;;;;;;2.88;0.50;;;15.00;99.90;;;;;;5099957;28;20038;-70
2023/10/22 11:20:38;;;;;;;2.17;0.63;;;15.10;99.90;;;;;;5117640;28;20020;-71
2023/10/22 11:23:16;;;;;;;2.25;0.77;;;15.20;99.90;;;;;;5118032;28;20094;-70
2023/10/22 11:25:42;;;;;;;3.97;0.70;;;15.30;99.90;;;;;;5117781;28;20035;-71
2023/10/22 11:28:08;;;;;;;4.90;0.90;;;15.50;99.90;;;;;;5099626;28;20024;-73
2023/10/22 11:30:36;;;;;;;3.47;0.85;;;15.50;99.90;;;;;;5099327;28;20076;-72
2023/10/22 11:33:06;;;;;;;2.53;0.70;;;15.50;99.90;;;;;;5118006;28;20015;-73
2023/10/22 11:35:32;;;;;;;2.42;0.60;;;15.50;99.90;;;;;;5117773;28;20043;-71
2023/10/22 11:37:58;;;;;;;;;;;15.50;99.90;;;;;;5118626;28;20016;-72
2023/10/22 11:40:24;;;;;;;;;;;15.60;99.90;;;;;;5117913;28;19904;-72
2023/10/22 11:42:50;;;;;;;1.33;0.40;;;15.70;99.90;;;;;;5117995;28;19904;-72
2023/10/22 11:45:16;;;;;;;5.07;0.50;;;15.70;99.90;;;;;;5118047;28;20400;-72
2023/10/22 11:47:41;;;;;;;2.70;0.70;;;15.80;99.90;;;;;;5117956;28;20035;-72
2023/10/22 11:50:09;;;;;;;5.03;0.90;;;16.00;99.90;;;;;;5119295;27;20023;-71
2023/10/22 11:52:34;;;;;;;6.25;1.10;;;16.10;99.90;;;;;;5125239;27;20020;-73
2023/10/22 11:55:07;;;;;;;2.67;0.95;;;16.00;99.90;;;;;;5117804;28;20023;-73
2023/10/22 11:57:37;;;;;;;5.30;0.77;;;15.90;99.90;;;;;;5117841;28;20022;-73
2023/10/22 12:00:06;;;;;;;5.15;0.93;;;15.80;99.90;;;;;;5117646;28;20055;-73
2023/10/22 12:02:32;;;;;;;3.50;1.00;;;15.70;99.90;;;;;;5117665;28;20046;-72
2023/10/22 12:04:58;;;;;;;3.30;0.60;;;15.60;99.90;;;;;;5099197;28;20031;-72
2023/10/22 12:07:23;;;;;;;2.55;0.73;;;15.50;99.90;;;;;;5099121;28;20571;-71
2023/10/22 12:09:49;;;;;;;4.75;0.70;;;15.30;99.90;;;;;;5117634;28;20488;-71
2023/10/22 12:12:15;;;;;;;2.35;0.60;;;15.20;99.90;;;;;;5117534;28;20034;-71
2023/10/22 12:14:42;;;;;;;4.72;0.60;;;15.20;99.90;;;;;;5117766;28;20468;-70
2023/10/22 12:17:08;;;;;;;3.60;0.80;;;15.20;99.90;;;;;;5117603;28;20019;-70
2023/10/22 12:19:34;;;;;;;3.10;0.60;;;15.20;99.90;;;;;;5117830;28;20024;-73
2023/10/22 12:21:59;;;;;;;2.13;0.60;;;15.10;99.90;;;;;;5121588;28;20402;-71
2023/10/22 12:24:25;;;;;;;4.32;0.70;;;15.20;99.90;;;;;;5121806;28;20497;-71
2023/10/22 12:26:51;;;;;;;1.98;0.70;;;15.30;99.90;;;;;;5121377;28;20080;-72
2023/10/22 12:29:16;;;;;;;1.42;0.40;;;15.40;99.90;;;;;;5103747;28;20066;-71
2023/10/22 12:31:42;;;;;;;3.15;0.60;;;15.50;99.90;;;;;;5103192;28;20034;-71
2023/10/22 12:34:08;;;;;;;3.92;0.55;;;15.40;99.90;;;;;;5121419;27;20020;-71
2023/10/22 12:36:34;;;;;;;2.60;0.50;;;15.40;99.90;;;;;;5118787;27;20019;-71
2023/10/22 12:39:00;;;;;;;4.15;0.50;;;15.40;99.90;;;;;;5128211;27;20024;-71
2023/10/22 12:41:26;;;;;;;1.58;0.55;;;15.50;99.90;;;;;;5120898;28;20023;-71
2023/10/22 12:43:52;;;;;;;2.00;0.60;;;15.70;99.90;;;;;;5109093;28;20114;-71
2023/10/22 12:46:18;;;;;;;2.83;0.32;;;16.10;99.90;;;;;;5121261;28;20050;-71
2023/10/22 12:48:44;;;;;;;2.97;0.50;;;16.30;99.90;;;;;;5121348;28;20027;-71
2023/10/22 12:51:11;;;;;;;2.03;0.40;;;16.50;99.90;;;;;;5121573;28;20034;-71
2023/10/22 12:53:37;;;;;;;4.53;0.70;;;16.70;99.90;;;;;;5121330;28;20043;-71
2023/10/22 12:56:02;;;;;;;3.00;0.60;;;16.80;99.90;;;;;;5119651;28;20387;-70
2023/10/22 12:58:28;;;;;;;2.72;0.50;;;16.80;99.90;;;;;;5121219;28;20027;-71
2023/10/22 13:00:54;;;;;;;1.17;0.43;;;16.80;99.90;;;;;;5119576;28;20380;-72
2023/10/22 13:03:19;;;;;;;2.95;0.40;;;16.80;99.90;;;;;;5121113;28;20088;-72
2023/10/22 13:05:46;;;;;;;3.67;0.50;;;16.60;99.90;;;;;;5120627;28;20028;-72
2023/10/22 13:08:12;;;;;;;2.55;0.50;;;16.50;99.90;;;;;;5122435;27;20472;-72
2023/10/22 13:10:48;;;;;;;2.15;0.40;;;16.30;99.90;;;;;;5120890;28;20102;-72
2023/10/22 13:13:14;;;;;;;2.65;0.40;;;16.10;99.90;;;;;;5102433;28;20472;-72
2023/10/22 13:15:40;;;;;;;3.08;0.43;;;16.00;99.90;;;;;;5120569;28;20019;-71
2023/10/22 13:18:06;;;;;;;0.68;0.30;;;16.00;99.90;;;;;;5102549;28;20510;-72
2023/10/22 13:20:32;;;;;;;3.83;0.55;;;16.00;99.90;;;;;;5120400;28;20480;-72
2023/10/22 13:22:57;;;;;;;;;;;16.10;99.90;;;;;;5102823;28;20034;-72
2023/10/22 13:25:23;;;;;;;1.50;0.30;;;16.20;99.90;;;;;;5120459;28;19904;-72